Terminal Aerodrome Forecast
Issued by NWS

Home | Current Version | Previous Version | Text Only | Print | Product List | Glossary On
Versions: 1 2 3 4 5 6 7 8 9 10 11 12 13 14
000
FTUS44 KEPZ 031120
TAFLRU
TAF
KLRU 031120Z 0312/0412 04010KT P6SM SCT050 BKN100
      TEMPO 0313/0315 3SM TSRA BKN050CB
     FM031800 09012KT P6SM VCTS SCT050CB BKN100
     FM040000 09013KT P6SM VCTS BKN060CB=

USA.gov is the U.S. government's official web portal to all federal, state and local government web resources and services.